sensor_id;sensor_type;location;lat;lon;timestamp;P1;durP1;ratioP1;P2;durP2;ratioP2
21886;SDS011;11108;49.988;8.182;2022-08-23T00:01:25;3.00;;;2.70;;
21886;SDS011;11108;49.988;8.182;2022-08-23T00:03:51;3.27;;;2.53;;
21886;SDS011;11108;49.988;8.182;2022-08-23T00:06:17;3.37;;;3.07;;
21886;SDS011;11108;49.988;8.182;2022-08-23T00:08:42;3.03;;;2.60;;
21886;SDS011;11108;49.988;8.182;2022-08-23T00:13:48;3.23;;;2.70;;
21886;SDS011;11108;49.988;8.182;2022-08-23T00:16:13;2.97;;;2.70;;
21886;SDS011;11108;49.988;8.182;2022-08-23T00:18:39;2.97;;;2.70;;
21886;SDS011;11108;49.988;8.182;2022-08-23T00:21:04;3.10;;;2.70;;
21886;SDS011;11108;49.988;8.182;2022-08-23T00:23:29;2.60;;;2.50;;
21886;SDS011;11108;49.988;8.182;2022-08-23T00:25:55;4.10;;;2.67;;
21886;SDS011;11108;49.988;8.182;2022-08-23T00:28:20;3.47;;;2.70;;
21886;SDS011;11108;49.988;8.182;2022-08-23T00:30:45;3.07;;;2.80;;
21886;SDS011;11108;49.988;8.182;2022-08-23T00:33:10;3.60;;;2.90;;
21886;SDS011;11108;49.988;8.182;2022-08-23T00:35:36;3.17;;;2.93;;
21886;SDS011;11108;49.988;8.182;2022-08-23T00:38:01;2.87;;;2.67;;
21886;SDS011;11108;49.988;8.182;2022-08-23T00:40:26;4.00;;;2.60;;
21886;SDS011;11108;49.988;8.182;2022-08-23T00:42:53;4.53;;;2.57;;
21886;SDS011;11108;49.988;8.182;2022-08-23T00:48:32;2.67;;;2.47;;
21886;SDS011;11108;49.988;8.182;2022-08-23T00:51:02;2.80;;;2.60;;
21886;SDS011;11108;49.988;8.182;2022-08-23T00:53:31;2.83;;;2.60;;
21886;SDS011;11108;49.988;8.182;2022-08-23T00:55:58;2.70;;;2.50;;
21886;SDS011;11108;49.988;8.182;2022-08-23T00:58:24;3.03;;;2.20;;
21886;SDS011;11108;49.988;8.182;2022-08-23T01:00:50;3.33;;;2.53;;
21886;SDS011;11108;49.988;8.182;2022-08-23T01:03:17;4.97;;;2.73;;
21886;SDS011;11108;49.988;8.182;2022-08-23T01:08:16;2.70;;;2.50;;
21886;SDS011;11108;49.988;8.182;2022-08-23T01:10:42;3.73;;;2.47;;
21886;SDS011;11108;49.988;8.182;2022-08-23T01:13:16;2.93;;;2.60;;
21886;SDS011;11108;49.988;8.182;2022-08-23T01:15:46;2.93;;;2.63;;
21886;SDS011;11108;49.988;8.182;2022-08-23T01:18:13;2.63;;;2.43;;
21886;SDS011;11108;49.988;8.182;2022-08-23T01:20:50;2.53;;;2.33;;
21886;SDS011;11108;49.988;8.182;2022-08-23T01:23:28;3.03;;;2.10;;
21886;SDS011;11108;49.988;8.182;2022-08-23T01:25:55;4.23;;;2.60;;
21886;SDS011;11108;49.988;8.182;2022-08-23T01:28:20;2.50;;;2.30;;
21886;SDS011;11108;49.988;8.182;2022-08-23T01:30:45;2.50;;;2.30;;
21886;SDS011;11108;49.988;8.182;2022-08-23T01:33:11;2.53;;;2.23;;
21886;SDS011;11108;49.988;8.182;2022-08-23T01:35:37;2.70;;;2.50;;
21886;SDS011;11108;49.988;8.182;2022-08-23T01:38:04;3.17;;;2.20;;
21886;SDS011;11108;49.988;8.182;2022-08-23T01:40:30;2.77;;;2.57;;
21886;SDS011;11108;49.988;8.182;2022-08-23T01:42:55;2.73;;;2.33;;
21886;SDS011;11108;49.988;8.182;2022-08-23T01:45:21;2.67;;;2.47;;
21886;SDS011;11108;49.988;8.182;2022-08-23T01:47:46;2.83;;;2.40;;
21886;SDS011;11108;49.988;8.182;2022-08-23T01:50:12;2.33;;;2.20;;
21886;SDS011;11108;49.988;8.182;2022-08-23T01:52:38;2.60;;;2.40;;
21886;SDS011;11108;49.988;8.182;2022-08-23T01:55:04;4.00;;;2.67;;
21886;SDS011;11108;49.988;8.182;2022-08-23T01:57:29;2.43;;;2.23;;
21886;SDS011;11108;49.988;8.182;2022-08-23T01:59:55;2.80;;;2.57;;
21886;SDS011;11108;49.988;8.182;2022-08-23T02:02:21;2.80;;;2.33;;
21886;SDS011;11108;49.988;8.182;2022-08-23T02:04:46;2.73;;;2.43;;
21886;SDS011;11108;49.988;8.182;2022-08-23T02:07:11;3.57;;;2.47;;
21886;SDS011;11108;49.988;8.182;2022-08-23T02:09:36;4.30;;;2.40;;
21886;SDS011;11108;49.988;8.182;2022-08-23T02:12:02;2.43;;;2.23;;
21886;SDS011;11108;49.988;8.182;2022-08-23T02:14:27;2.30;;;1.80;;
21886;SDS011;11108;49.988;8.182;2022-08-23T02:16:53;2.40;;;2.20;;
21886;SDS011;11108;49.988;8.182;2022-08-23T02:19:19;2.60;;;2.40;;
21886;SDS011;11108;49.988;8.182;2022-08-23T02:21:45;3.07;;;2.53;;
21886;SDS011;11108;49.988;8.182;2022-08-23T02:24:16;4.20;;;2.40;;
21886;SDS011;11108;49.988;8.182;2022-08-23T02:26:46;2.23;;;2.03;;
21886;SDS011;11108;49.988;8.182;2022-08-23T02:29:12;2.80;;;2.60;;
21886;SDS011;11108;49.988;8.182;2022-08-23T02:31:37;4.03;;;2.53;;
21886;SDS011;11108;49.988;8.182;2022-08-23T02:34:03;3.20;;;2.67;;
21886;SDS011;11108;49.988;8.182;2022-08-23T02:36:30;3.30;;;2.33;;
21886;SDS011;11108;49.988;8.182;2022-08-23T02:38:55;2.73;;;2.23;;
21886;SDS011;11108;49.988;8.182;2022-08-23T02:41:20;2.87;;;2.47;;
21886;SDS011;11108;49.988;8.182;2022-08-23T02:43:45;2.50;;;2.30;;
21886;SDS011;11108;49.988;8.182;2022-08-23T02:46:11;2.60;;;2.40;;
21886;SDS011;11108;49.988;8.182;2022-08-23T02:48:36;2.57;;;2.37;;
21886;SDS011;11108;49.988;8.182;2022-08-23T02:51:05;2.27;;;2.10;;
21886;SDS011;11108;49.988;8.182;2022-08-23T02:53:31;4.47;;;2.60;;
21886;SDS011;11108;49.988;8.182;2022-08-23T02:55:56;3.17;;;2.47;;
21886;SDS011;11108;49.988;8.182;2022-08-23T02:58:22;2.77;;;2.30;;
21886;SDS011;11108;49.988;8.182;2022-08-23T03:00:47;2.47;;;2.20;;
21886;SDS011;11108;49.988;8.182;2022-08-23T03:03:13;2.50;;;2.30;;
21886;SDS011;11108;49.988;8.182;2022-08-23T03:05:38;2.47;;;2.27;;
21886;SDS011;11108;49.988;8.182;2022-08-23T03:08:03;3.90;;;2.77;;
21886;SDS011;11108;49.988;8.182;2022-08-23T03:10:29;2.80;;;2.13;;
21886;SDS011;11108;49.988;8.182;2022-08-23T03:12:55;3.37;;;2.60;;
21886;SDS011;11108;49.988;8.182;2022-08-23T03:15:20;3.47;;;2.33;;
21886;SDS011;11108;49.988;8.182;2022-08-23T03:17:45;2.83;;;2.50;;
21886;SDS011;11108;49.988;8.182;2022-08-23T03:20:10;2.60;;;2.40;;
21886;SDS011;11108;49.988;8.182;2022-08-23T03:22:36;3.27;;;2.57;;
21886;SDS011;11108;49.988;8.182;2022-08-23T03:25:02;3.30;;;2.50;;
21886;SDS011;11108;49.988;8.182;2022-08-23T03:27:27;3.03;;;2.27;;
21886;SDS011;11108;49.988;8.182;2022-08-23T03:29:52;2.50;;;2.30;;
21886;SDS011;11108;49.988;8.182;2022-08-23T03:32:17;3.47;;;2.13;;
21886;SDS011;11108;49.988;8.182;2022-08-23T03:34:42;3.43;;;2.70;;
21886;SDS011;11108;49.988;8.182;2022-08-23T03:37:08;4.60;;;2.97;;
21886;SDS011;11108;49.988;8.182;2022-08-23T03:39:34;2.43;;;2.10;;
21886;SDS011;11108;49.988;8.182;2022-08-23T03:41:59;2.63;;;2.40;;
21886;SDS011;11108;49.988;8.182;2022-08-23T03:44:24;2.83;;;2.60;;
21886;SDS011;11108;49.988;8.182;2022-08-23T03:46:50;2.70;;;2.50;;
21886;SDS011;11108;49.988;8.182;2022-08-23T03:49:15;2.63;;;2.43;;
21886;SDS011;11108;49.988;8.182;2022-08-23T03:51:40;3.27;;;2.53;;
21886;SDS011;11108;49.988;8.182;2022-08-23T03:54:05;3.30;;;2.70;;
21886;SDS011;11108;49.988;8.182;2022-08-23T03:56:49;5.33;;;2.33;;
21886;SDS011;11108;49.988;8.182;2022-08-23T03:59:14;3.57;;;2.23;;
21886;SDS011;11108;49.988;8.182;2022-08-23T04:01:40;2.43;;;2.23;;
21886;SDS011;11108;49.988;8.182;2022-08-23T04:04:05;3.47;;;2.43;;
21886;SDS011;11108;49.988;8.182;2022-08-23T04:06:30;5.23;;;2.53;;
21886;SDS011;11108;49.988;8.182;2022-08-23T04:08:57;3.60;;;3.07;;
21886;SDS011;11108;49.988;8.182;2022-08-23T04:11:22;3.00;;;2.70;;
21886;SDS011;11108;49.988;8.182;2022-08-23T04:13:48;5.07;;;2.53;;
21886;SDS011;11108;49.988;8.182;2022-08-23T04:16:13;3.47;;;2.70;;
21886;SDS011;11108;49.988;8.182;2022-08-23T04:18:38;2.90;;;2.23;;
21886;SDS011;11108;49.988;8.182;2022-08-23T04:21:05;3.13;;;2.20;;
21886;SDS011;11108;49.988;8.182;2022-08-23T04:23:31;3.53;;;2.77;;
21886;SDS011;11108;49.988;8.182;2022-08-23T04:25:57;3.63;;;2.80;;
21886;SDS011;11108;49.988;8.182;2022-08-23T04:28:22;2.30;;;2.10;;
21886;SDS011;11108;49.988;8.182;2022-08-23T04:30:48;3.10;;;2.23;;
21886;SDS011;11108;49.988;8.182;2022-08-23T04:33:14;3.33;;;2.47;;
21886;SDS011;11108;49.988;8.182;2022-08-23T04:35:40;3.93;;;2.60;;
21886;SDS011;11108;49.988;8.182;2022-08-23T04:38:05;2.97;;;2.70;;
21886;SDS011;11108;49.988;8.182;2022-08-23T04:40:30;3.00;;;2.60;;
21886;SDS011;11108;49.988;8.182;2022-08-23T04:43:15;4.47;;;2.40;;
21886;SDS011;11108;49.988;8.182;2022-08-23T04:45:40;3.03;;;2.60;;
21886;SDS011;11108;49.988;8.182;2022-08-23T04:48:05;3.87;;;2.67;;
21886;SDS011;11108;49.988;8.182;2022-08-23T04:50:31;2.90;;;2.43;;
21886;SDS011;11108;49.988;8.182;2022-08-23T04:52:56;3.77;;;2.87;;
21886;SDS011;11108;49.988;8.182;2022-08-23T04:55:21;2.57;;;2.27;;
21886;SDS011;11108;49.988;8.182;2022-08-23T04:57:47;2.60;;;2.40;;
21886;SDS011;11108;49.988;8.182;2022-08-23T05:00:12;3.33;;;2.50;;
21886;SDS011;11108;49.988;8.182;2022-08-23T05:02:38;3.13;;;2.43;;
21886;SDS011;11108;49.988;8.182;2022-08-23T05:05:04;2.70;;;2.47;;
21886;SDS011;11108;49.988;8.182;2022-08-23T05:07:29;7.47;;;3.00;;
21886;SDS011;11108;49.988;8.182;2022-08-23T05:09:55;3.13;;;2.73;;
21886;SDS011;11108;49.988;8.182;2022-08-23T05:12:20;8.67;;;2.90;;
21886;SDS011;11108;49.988;8.182;2022-08-23T05:14:46;3.17;;;2.70;;
21886;SDS011;11108;49.988;8.182;2022-08-23T05:17:11;3.00;;;2.40;;
21886;SDS011;11108;49.988;8.182;2022-08-23T05:19:36;2.60;;;2.40;;
21886;SDS011;11108;49.988;8.182;2022-08-23T05:22:01;3.40;;;2.70;;
21886;SDS011;11108;49.988;8.182;2022-08-23T05:24:26;3.33;;;2.60;;
21886;SDS011;11108;49.988;8.182;2022-08-23T05:26:52;2.33;;;2.13;;
21886;SDS011;11108;49.988;8.182;2022-08-23T05:29:17;2.87;;;2.60;;
21886;SDS011;11108;49.988;8.182;2022-08-23T05:31:42;2.80;;;2.60;;
21886;SDS011;11108;49.988;8.182;2022-08-23T05:34:07;3.23;;;2.57;;
21886;SDS011;11108;49.988;8.182;2022-08-23T05:36:33;2.43;;;2.33;;
21886;SDS011;11108;49.988;8.182;2022-08-23T05:38:58;3.53;;;2.43;;
21886;SDS011;11108;49.988;8.182;2022-08-23T05:41:23;2.63;;;2.30;;
21886;SDS011;11108;49.988;8.182;2022-08-23T05:43:49;2.77;;;2.20;;
21886;SDS011;11108;49.988;8.182;2022-08-23T05:46:15;2.47;;;2.27;;
21886;SDS011;11108;49.988;8.182;2022-08-23T05:48:41;2.50;;;2.30;;
21886;SDS011;11108;49.988;8.182;2022-08-23T05:51:15;2.80;;;2.57;;
21886;SDS011;11108;49.988;8.182;2022-08-23T05:53:41;4.43;;;2.23;;
21886;SDS011;11108;49.988;8.182;2022-08-23T05:56:11;3.90;;;2.27;;
21886;SDS011;11108;49.988;8.182;2022-08-23T05:58:36;2.10;;;1.97;;
21886;SDS011;11108;49.988;8.182;2022-08-23T06:01:02;2.60;;;2.40;;
21886;SDS011;11108;49.988;8.182;2022-08-23T06:03:27;4.50;;;2.53;;
21886;SDS011;11108;49.988;8.182;2022-08-23T06:05:59;2.70;;;2.50;;
21886;SDS011;11108;49.988;8.182;2022-08-23T06:08:24;3.03;;;2.10;;
21886;SDS011;11108;49.988;8.182;2022-08-23T06:11:12;2.60;;;2.40;;
21886;SDS011;11108;49.988;8.182;2022-08-23T06:13:39;2.53;;;2.30;;
21886;SDS011;11108;49.988;8.182;2022-08-23T06:16:06;5.03;;;2.43;;
21886;SDS011;11108;49.988;8.182;2022-08-23T06:18:32;2.93;;;2.43;;
21886;SDS011;11108;49.988;8.182;2022-08-23T06:20:58;2.83;;;2.37;;
21886;SDS011;11108;49.988;8.182;2022-08-23T06:23:25;4.40;;;2.57;;
21886;SDS011;11108;49.988;8.182;2022-08-23T06:25:50;2.47;;;2.20;;
21886;SDS011;11108;49.988;8.182;2022-08-23T06:28:15;2.70;;;2.47;;
21886;SDS011;11108;49.988;8.182;2022-08-23T06:30:40;2.77;;;2.10;;
21886;SDS011;11108;49.988;8.182;2022-08-23T06:33:06;6.23;;;2.57;;
21886;SDS011;11108;49.988;8.182;2022-08-23T06:35:31;4.63;;;2.63;;
21886;SDS011;11108;49.988;8.182;2022-08-23T06:37:56;5.17;;;2.30;;
21886;SDS011;11108;49.988;8.182;2022-08-23T06:40:21;4.53;;;2.33;;
21886;SDS011;11108;49.988;8.182;2022-08-23T06:42:47;4.07;;;2.50;;
21886;SDS011;11108;49.988;8.182;2022-08-23T06:45:12;4.70;;;2.50;;
21886;SDS011;11108;49.988;8.182;2022-08-23T06:47:38;3.10;;;2.50;;
21886;SDS011;11108;49.988;8.182;2022-08-23T06:50:04;6.23;;;2.63;;
21886;SDS011;11108;49.988;8.182;2022-08-23T06:52:29;2.90;;;2.60;;
21886;SDS011;11108;49.988;8.182;2022-08-23T06:54:54;4.43;;;2.33;;
21886;SDS011;11108;49.988;8.182;2022-08-23T06:57:20;3.07;;;2.70;;
21886;SDS011;11108;49.988;8.182;2022-08-23T06:59:45;2.77;;;2.50;;
21886;SDS011;11108;49.988;8.182;2022-08-23T07:02:12;3.40;;;2.33;;
21886;SDS011;11108;49.988;8.182;2022-08-23T07:04:38;4.27;;;2.60;;
21886;SDS011;11108;49.988;8.182;2022-08-23T07:07:04;3.90;;;2.10;;
21886;SDS011;11108;49.988;8.182;2022-08-23T07:09:30;3.17;;;2.50;;
21886;SDS011;11108;49.988;8.182;2022-08-23T07:11:55;6.00;;;2.60;;
21886;SDS011;11108;49.988;8.182;2022-08-23T07:14:21;6.63;;;2.70;;
21886;SDS011;11108;49.988;8.182;2022-08-23T07:19:13;3.43;;;2.77;;
21886;SDS011;11108;49.988;8.182;2022-08-23T07:21:38;3.93;;;2.80;;
21886;SDS011;11108;49.988;8.182;2022-08-23T07:24:03;3.00;;;2.70;;
21886;SDS011;11108;49.988;8.182;2022-08-23T07:26:29;4.70;;;2.87;;
21886;SDS011;11108;49.988;8.182;2022-08-23T07:28:54;3.83;;;2.60;;
21886;SDS011;11108;49.988;8.182;2022-08-23T07:31:25;6.63;;;3.10;;
21886;SDS011;11108;49.988;8.182;2022-08-23T07:33:55;3.67;;;2.57;;
21886;SDS011;11108;49.988;8.182;2022-08-23T07:36:21;3.73;;;2.60;;
21886;SDS011;11108;49.988;8.182;2022-08-23T07:38:47;2.67;;;2.50;;
21886;SDS011;11108;49.988;8.182;2022-08-23T07:41:12;2.80;;;2.60;;
21886;SDS011;11108;49.988;8.182;2022-08-23T07:43:38;3.53;;;2.40;;
21886;SDS011;11108;49.988;8.182;2022-08-23T07:46:04;2.93;;;2.50;;
21886;SDS011;11108;49.988;8.182;2022-08-23T07:48:29;3.20;;;2.50;;
21886;SDS011;11108;49.988;8.182;2022-08-23T07:50:55;4.27;;;2.80;;
21886;SDS011;11108;49.988;8.182;2022-08-23T07:53:21;2.77;;;2.40;;
21886;SDS011;11108;49.988;8.182;2022-08-23T07:55:47;2.63;;;2.40;;
21886;SDS011;11108;49.988;8.182;2022-08-23T07:58:12;3.20;;;2.87;;
21886;SDS011;11108;49.988;8.182;2022-08-23T08:00:37;4.23;;;2.73;;
21886;SDS011;11108;49.988;8.182;2022-08-23T08:03:02;3.20;;;2.87;;
21886;SDS011;11108;49.988;8.182;2022-08-23T08:05:30;2.70;;;2.40;;
21886;SDS011;11108;49.988;8.182;2022-08-23T08:07:55;2.57;;;2.37;;
21886;SDS011;11108;49.988;8.182;2022-08-23T08:10:20;3.07;;;2.50;;
21886;SDS011;11108;49.988;8.182;2022-08-23T08:12:45;3.10;;;2.73;;
21886;SDS011;11108;49.988;8.182;2022-08-23T08:15:11;2.40;;;2.20;;
21886;SDS011;11108;49.988;8.182;2022-08-23T08:17:36;3.43;;;2.63;;
21886;SDS011;11108;49.988;8.182;2022-08-23T08:20:02;2.60;;;2.40;;
21886;SDS011;11108;49.988;8.182;2022-08-23T08:22:27;3.53;;;2.73;;
21886;SDS011;11108;49.988;8.182;2022-08-23T08:24:52;3.30;;;2.47;;
21886;SDS011;11108;49.988;8.182;2022-08-23T08:27:17;4.13;;;2.77;;
21886;SDS011;11108;49.988;8.182;2022-08-23T08:29:43;3.83;;;2.37;;
21886;SDS011;11108;49.988;8.182;2022-08-23T08:32:08;2.50;;;2.30;;
21886;SDS011;11108;49.988;8.182;2022-08-23T08:34:34;2.67;;;2.33;;
21886;SDS011;11108;49.988;8.182;2022-08-23T08:36:59;4.63;;;2.43;;
21886;SDS011;11108;49.988;8.182;2022-08-23T08:39:26;3.50;;;2.50;;
21886;SDS011;11108;49.988;8.182;2022-08-23T08:42:06;3.80;;;2.83;;
21886;SDS011;11108;49.988;8.182;2022-08-23T08:49:59;3.67;;;2.40;;
21886;SDS011;11108;49.988;8.182;2022-08-23T08:52:26;4.97;;;2.67;;
21886;SDS011;11108;49.988;8.182;2022-08-23T08:55:03;3.10;;;2.73;;
21886;SDS011;11108;49.988;8.182;2022-08-23T08:57:29;2.67;;;2.37;;
21886;SDS011;11108;49.988;8.182;2022-08-23T09:00:01;3.23;;;2.70;;
21886;SDS011;11108;49.988;8.182;2022-08-23T09:02:30;4.63;;;3.40;;
21886;SDS011;11108;49.988;8.182;2022-08-23T09:04:56;3.53;;;2.40;;
21886;SDS011;11108;49.988;8.182;2022-08-23T09:07:24;3.90;;;2.77;;
21886;SDS011;11108;49.988;8.182;2022-08-23T09:09:59;3.23;;;2.93;;
21886;SDS011;11108;49.988;8.182;2022-08-23T09:12:36;3.27;;;2.73;;
21886;SDS011;11108;49.988;8.182;2022-08-23T09:17:48;2.93;;;2.53;;
21886;SDS011;11108;49.988;8.182;2022-08-23T09:20:16;3.73;;;2.57;;
21886;SDS011;11108;49.988;8.182;2022-08-23T09:22:42;3.63;;;2.70;;
21886;SDS011;11108;49.988;8.182;2022-08-23T09:25:10;2.57;;;2.37;;
21886;SDS011;11108;49.988;8.182;2022-08-23T09:27:39;2.13;;;2.03;;
21886;SDS011;11108;49.988;8.182;2022-08-23T09:30:06;2.50;;;2.30;;
21886;SDS011;11108;49.988;8.182;2022-08-23T09:32:33;3.00;;;2.77;;
21886;SDS011;11108;49.988;8.182;2022-08-23T09:37:30;4.00;;;3.60;;
21886;SDS011;11108;49.988;8.182;2022-08-23T09:40:14;5.73;;;3.17;;
21886;SDS011;11108;49.988;8.182;2022-08-23T09:42:40;2.90;;;2.70;;
21886;SDS011;11108;49.988;8.182;2022-08-23T09:47:49;3.23;;;2.97;;
21886;SDS011;11108;49.988;8.182;2022-08-23T09:50:18;4.90;;;2.43;;
21886;SDS011;11108;49.988;8.182;2022-08-23T09:52:48;3.07;;;2.50;;
21886;SDS011;11108;49.988;8.182;2022-08-23T09:57:51;2.83;;;2.53;;
21886;SDS011;11108;49.988;8.182;2022-08-23T10:02:42;2.53;;;2.40;;
21886;SDS011;11108;49.988;8.182;2022-08-23T10:07:40;2.80;;;2.60;;
21886;SDS011;11108;49.988;8.182;2022-08-23T10:12:50;5.03;;;3.90;;
21886;SDS011;11108;49.988;8.182;2022-08-23T10:15:16;11.33;;;8.10;;
21886;SDS011;11108;49.988;8.182;2022-08-23T10:18:27;20.37;;;12.70;;
21886;SDS011;11108;49.988;8.182;2022-08-23T10:20:33;41.93;;;29.30;;
21886;SDS011;11108;49.988;8.182;2022-08-23T10:25:35;111.87;;;79.27;;
21886;SDS011;11108;49.988;8.182;2022-08-23T10:28:24;121.20;;;89.30;;
21886;SDS011;11108;49.988;8.182;2022-08-23T10:34:05;109.60;;;81.20;;
21886;SDS011;11108;49.988;8.182;2022-08-23T10:39:23;101.10;;;74.87;;
21886;SDS011;11108;49.988;8.182;2022-08-23T10:42:04;86.73;;;64.10;;
21886;SDS011;11108;49.988;8.182;2022-08-23T10:44:33;79.17;;;59.33;;
21886;SDS011;11108;49.988;8.182;2022-08-23T10:49:24;74.20;;;56.90;;
21886;SDS011;11108;49.988;8.182;2022-08-23T10:51:51;73.73;;;54.57;;
21886;SDS011;11108;49.988;8.182;2022-08-23T10:54:27;66.20;;;49.97;;
21886;SDS011;11108;49.988;8.182;2022-08-23T10:57:00;66.57;;;48.63;;
21886;SDS011;11108;49.988;8.182;2022-08-23T10:59:25;61.20;;;45.83;;
21886;SDS011;11108;49.988;8.182;2022-08-23T11:01:52;63.53;;;44.07;;
21886;SDS011;11108;49.988;8.182;2022-08-23T11:06:51;45.47;;;36.93;;
21886;SDS011;11108;49.988;8.182;2022-08-23T11:11:46;44.33;;;35.17;;
21886;SDS011;11108;49.988;8.182;2022-08-23T11:14:26;45.80;;;33.23;;
21886;SDS011;11108;49.988;8.182;2022-08-23T11:17:00;43.00;;;32.97;;
21886;SDS011;11108;49.988;8.182;2022-08-23T11:19:48;35.13;;;29.00;;
21886;SDS011;11108;49.988;8.182;2022-08-23T11:24:53;34.20;;;25.97;;
21886;SDS011;11108;49.988;8.182;2022-08-23T11:27:30;30.03;;;24.93;;
21886;SDS011;11108;49.988;8.182;2022-08-23T11:29:55;27.07;;;21.70;;
21886;SDS011;11108;49.988;8.182;2022-08-23T11:38:01;19.83;;;15.90;;
21886;SDS011;11108;49.988;8.182;2022-08-23T11:43:12;16.77;;;14.30;;
21886;SDS011;11108;49.988;8.182;2022-08-23T11:45:44;17.80;;;15.10;;
21886;SDS011;11108;49.988;8.182;2022-08-23T11:50:44;14.80;;;12.80;;
21886;SDS011;11108;49.988;8.182;2022-08-23T11:53:22;13.50;;;12.03;;
21886;SDS011;11108;49.988;8.182;2022-08-23T11:55:56;16.13;;;11.23;;
21886;SDS011;11108;49.988;8.182;2022-08-23T12:01:09;13.10;;;9.93;;
21886;SDS011;11108;49.988;8.182;2022-08-23T12:11:10;10.33;;;9.23;;
21886;SDS011;11108;49.988;8.182;2022-08-23T12:16:25;11.07;;;7.97;;
21886;SDS011;11108;49.988;8.182;2022-08-23T12:18:53;8.60;;;7.77;;
21886;SDS011;11108;49.988;8.182;2022-08-23T12:21:26;8.50;;;7.60;;
21886;SDS011;11108;49.988;8.182;2022-08-23T12:23:53;7.53;;;6.73;;
21886;SDS011;11108;49.988;8.182;2022-08-23T12:29:18;6.60;;;5.90;;
21886;SDS011;11108;49.988;8.182;2022-08-23T12:31:53;6.13;;;5.53;;
21886;SDS011;11108;49.988;8.182;2022-08-23T12:34:21;6.33;;;5.73;;
21886;SDS011;11108;49.988;8.182;2022-08-23T12:37:04;7.47;;;5.73;;
21886;SDS011;11108;49.988;8.182;2022-08-23T12:42:05;6.93;;;5.23;;
21886;SDS011;11108;49.988;8.182;2022-08-23T12:44:33;5.63;;;5.13;;
21886;SDS011;11108;49.988;8.182;2022-08-23T12:47:07;4.23;;;3.93;;
21886;SDS011;11108;49.988;8.182;2022-08-23T12:49:34;5.00;;;4.60;;
21886;SDS011;11108;49.988;8.182;2022-08-23T12:52:01;5.07;;;4.50;;
21886;SDS011;11108;49.988;8.182;2022-08-23T12:54:34;4.93;;;4.27;;
21886;SDS011;11108;49.988;8.182;2022-08-23T12:57:00;4.40;;;4.00;;
21886;SDS011;11108;49.988;8.182;2022-08-23T12:59:43;4.50;;;4.20;;
21886;SDS011;11108;49.988;8.182;2022-08-23T13:02:14;4.60;;;4.17;;
21886;SDS011;11108;49.988;8.182;2022-08-23T13:04:41;4.70;;;4.10;;
21886;SDS011;11108;49.988;8.182;2022-08-23T13:07:09;4.87;;;3.90;;
21886;SDS011;11108;49.988;8.182;2022-08-23T13:09:36;4.53;;;3.67;;
21886;SDS011;11108;49.988;8.182;2022-08-23T13:12:03;4.47;;;4.07;;
21886;SDS011;11108;49.988;8.182;2022-08-23T13:17:20;4.50;;;4.17;;
21886;SDS011;11108;49.988;8.182;2022-08-23T13:19:49;5.00;;;3.33;;
21886;SDS011;11108;49.988;8.182;2022-08-23T13:22:20;3.63;;;3.33;;
21886;SDS011;11108;49.988;8.182;2022-08-23T13:29:50;4.00;;;3.60;;
21886;SDS011;11108;49.988;8.182;2022-08-23T13:32:32;4.00;;;3.70;;
21886;SDS011;11108;49.988;8.182;2022-08-23T13:37:44;3.90;;;3.60;;
21886;SDS011;11108;49.988;8.182;2022-08-23T13:40:10;3.50;;;3.30;;
21886;SDS011;11108;49.988;8.182;2022-08-23T13:42:42;3.40;;;3.20;;
21886;SDS011;11108;49.988;8.182;2022-08-23T13:45:13;4.67;;;3.67;;
21886;SDS011;11108;49.988;8.182;2022-08-23T13:47:43;3.77;;;3.47;;
21886;SDS011;11108;49.988;8.182;2022-08-23T13:50:29;5.20;;;3.90;;
21886;SDS011;11108;49.988;8.182;2022-08-23T13:52:55;4.07;;;3.77;;
21886;SDS011;11108;49.988;8.182;2022-08-23T13:55:20;4.57;;;3.30;;
21886;SDS011;11108;49.988;8.182;2022-08-23T13:57:45;3.70;;;3.17;;
21886;SDS011;11108;49.988;8.182;2022-08-23T14:00:11;4.03;;;3.50;;
21886;SDS011;11108;49.988;8.182;2022-08-23T14:02:36;3.70;;;3.50;;
21886;SDS011;11108;49.988;8.182;2022-08-23T14:05:03;3.93;;;3.63;;
21886;SDS011;11108;49.988;8.182;2022-08-23T14:07:28;3.30;;;3.10;;
21886;SDS011;11108;49.988;8.182;2022-08-23T14:09:54;3.53;;;3.23;;
21886;SDS011;11108;49.988;8.182;2022-08-23T14:12:21;3.73;;;3.37;;
21886;SDS011;11108;49.988;8.182;2022-08-23T14:14:48;3.40;;;3.10;;
21886;SDS011;11108;49.988;8.182;2022-08-23T14:17:14;3.57;;;3.30;;
21886;SDS011;11108;49.988;8.182;2022-08-23T14:19:39;3.47;;;3.17;;
21886;SDS011;11108;49.988;8.182;2022-08-23T14:22:06;3.47;;;3.23;;
21886;SDS011;11108;49.988;8.182;2022-08-23T14:24:31;3.20;;;3.00;;
21886;SDS011;11108;49.988;8.182;2022-08-23T14:26:56;2.43;;;2.30;;
21886;SDS011;11108;49.988;8.182;2022-08-23T14:29:22;3.30;;;3.00;;
21886;SDS011;11108;49.988;8.182;2022-08-23T14:31:48;3.20;;;3.00;;
21886;SDS011;11108;49.988;8.182;2022-08-23T14:34:13;3.40;;;3.20;;
21886;SDS011;11108;49.988;8.182;2022-08-23T14:36:39;2.47;;;2.37;;
21886;SDS011;11108;49.988;8.182;2022-08-23T14:39:04;3.30;;;3.00;;
21886;SDS011;11108;49.988;8.182;2022-08-23T14:41:30;3.37;;;3.17;;
21886;SDS011;11108;49.988;8.182;2022-08-23T14:43:55;3.50;;;3.10;;
21886;SDS011;11108;49.988;8.182;2022-08-23T14:46:21;3.03;;;2.77;;
21886;SDS011;11108;49.988;8.182;2022-08-23T14:48:47;2.97;;;2.77;;
21886;SDS011;11108;49.988;8.182;2022-08-23T14:51:29;2.93;;;2.73;;
21886;SDS011;11108;49.988;8.182;2022-08-23T14:53:56;3.30;;;3.10;;
21886;SDS011;11108;49.988;8.182;2022-08-23T14:56:22;2.93;;;2.67;;
21886;SDS011;11108;49.988;8.182;2022-08-23T14:58:48;3.47;;;3.10;;
21886;SDS011;11108;49.988;8.182;2022-08-23T15:01:13;2.90;;;2.77;;
21886;SDS011;11108;49.988;8.182;2022-08-23T15:03:39;3.70;;;3.13;;
21886;SDS011;11108;49.988;8.182;2022-08-23T15:06:06;3.03;;;2.73;;
21886;SDS011;11108;49.988;8.182;2022-08-23T15:08:31;2.97;;;2.77;;
21886;SDS011;11108;49.988;8.182;2022-08-23T15:10:56;2.63;;;2.53;;
21886;SDS011;11108;49.988;8.182;2022-08-23T15:13:21;3.45;;;3.25;;
21886;SDS011;11108;49.988;8.182;2022-08-23T15:15:48;2.97;;;2.77;;
21886;SDS011;11108;49.988;8.182;2022-08-23T15:18:13;3.33;;;3.00;;
21886;SDS011;11108;49.988;8.182;2022-08-23T15:20:39;2.90;;;2.70;;
21886;SDS011;11108;49.988;8.182;2022-08-23T15:23:05;3.63;;;2.83;;
21886;SDS011;11108;49.988;8.182;2022-08-23T15:25:31;3.20;;;2.90;;
21886;SDS011;11108;49.988;8.182;2022-08-23T15:27:58;2.53;;;2.43;;
21886;SDS011;11108;49.988;8.182;2022-08-23T15:30:24;3.07;;;2.87;;
21886;SDS011;11108;49.988;8.182;2022-08-23T15:32:49;3.13;;;2.93;;
21886;SDS011;11108;49.988;8.182;2022-08-23T15:35:15;2.80;;;2.60;;
21886;SDS011;11108;49.988;8.182;2022-08-23T15:37:40;3.00;;;2.80;;
21886;SDS011;11108;49.988;8.182;2022-08-23T15:40:06;3.57;;;3.17;;
21886;SDS011;11108;49.988;8.182;2022-08-23T15:42:32;3.13;;;2.80;;
21886;SDS011;11108;49.988;8.182;2022-08-23T15:44:57;2.87;;;2.67;;
21886;SDS011;11108;49.988;8.182;2022-08-23T15:47:24;3.10;;;2.90;;
21886;SDS011;11108;49.988;8.182;2022-08-23T15:49:50;3.00;;;2.80;;
21886;SDS011;11108;49.988;8.182;2022-08-23T15:52:15;3.20;;;2.90;;
21886;SDS011;11108;49.988;8.182;2022-08-23T15:54:40;4.27;;;3.33;;
21886;SDS011;11108;49.988;8.182;2022-08-23T15:57:06;3.17;;;2.97;;
21886;SDS011;11108;49.988;8.182;2022-08-23T15:59:31;3.50;;;3.20;;
21886;SDS011;11108;49.988;8.182;2022-08-23T16:01:58;3.63;;;3.33;;
21886;SDS011;11108;49.988;8.182;2022-08-23T16:04:23;4.40;;;2.50;;
21886;SDS011;11108;49.988;8.182;2022-08-23T16:06:48;3.53;;;2.83;;
21886;SDS011;11108;49.988;8.182;2022-08-23T16:09:18;4.40;;;3.07;;
21886;SDS011;11108;49.988;8.182;2022-08-23T16:11:44;3.03;;;2.77;;
21886;SDS011;11108;49.988;8.182;2022-08-23T16:14:09;3.50;;;3.20;;
21886;SDS011;11108;49.988;8.182;2022-08-23T16:16:35;2.97;;;2.80;;
21886;SDS011;11108;49.988;8.182;2022-08-23T16:19:01;3.10;;;2.90;;